sensor_id;sensor_type;location;lat;lon;timestamp;temperature;humidity
22426;DHT22;11380;50.822;15.790;2023-10-09T00:00:12;8.40;1.00
22426;DHT22;11380;50.822;15.790;2023-10-09T00:05:40;8.50;1.00
22426;DHT22;11380;50.822;15.790;2023-10-09T00:10:51;8.50;1.00
22426;DHT22;11380;50.822;15.790;2023-10-09T00:16:06;8.30;1.00
22426;DHT22;11380;50.822;15.790;2023-10-09T00:21:18;8.40;1.00
22426;DHT22;11380;50.822;15.790;2023-10-09T00:26:31;8.50;1.00
22426;DHT22;11380;50.822;15.790;2023-10-09T00:31:44;8.60;1.00
22426;DHT22;11380;50.822;15.790;2023-10-09T00:36:52;8.70;1.00
22426;DHT22;11380;50.822;15.790;2023-10-09T00:42:00;8.30;1.00
22426;DHT22;11380;50.822;15.790;2023-10-09T00:47:10;8.50;1.00
22426;DHT22;11380;50.822;15.790;2023-10-09T00:52:32;8.60;1.00
22426;DHT22;11380;50.822;15.790;2023-10-09T00:57:48;8.50;1.00
22426;DHT22;11380;50.822;15.790;2023-10-09T01:02:59;8.40;1.00
22426;DHT22;11380;50.822;15.790;2023-10-09T01:08:09;8.30;1.00
22426;DHT22;11380;50.822;15.790;2023-10-09T01:13:18;8.30;1.00
22426;DHT22;11380;50.822;15.790;2023-10-09T01:18:26;8.50;1.00
22426;DHT22;11380;50.822;15.790;2023-10-09T01:23:36;8.20;1.00
22426;DHT22;11380;50.822;15.790;2023-10-09T01:28:45;7.90;1.00
22426;DHT22;11380;50.822;15.790;2023-10-09T01:33:55;8.10;1.00
22426;DHT22;11380;50.822;15.790;2023-10-09T01:39:04;7.90;1.00
22426;DHT22;11380;50.822;15.790;2023-10-09T01:44:33;8.00;1.00
22426;DHT22;11380;50.822;15.790;2023-10-09T01:49:49;8.00;1.00
22426;DHT22;11380;50.822;15.790;2023-10-09T01:54:59;7.90;1.00
22426;DHT22;11380;50.822;15.790;2023-10-09T02:00:08;7.90;1.00
22426;DHT22;11380;50.822;15.790;2023-10-09T02:05:17;8.00;1.00
22426;DHT22;11380;50.822;15.790;2023-10-09T02:10:27;8.00;1.00
22426;DHT22;11380;50.822;15.790;2023-10-09T02:15:37;8.00;1.00
22426;DHT22;11380;50.822;15.790;2023-10-09T02:26:14;8.20;1.00
22426;DHT22;11380;50.822;15.790;2023-10-09T02:31:31;8.00;1.00
22426;DHT22;11380;50.822;15.790;2023-10-09T02:36:43;8.20;1.00
22426;DHT22;11380;50.822;15.790;2023-10-09T02:41:52;8.00;1.00
22426;DHT22;11380;50.822;15.790;2023-10-09T02:47:08;8.00;1.00
22426;DHT22;11380;50.822;15.790;2023-10-09T02:52:19;8.10;1.00
22426;DHT22;11380;50.822;15.790;2023-10-09T02:57:28;8.00;1.00
22426;DHT22;11380;50.822;15.790;2023-10-09T03:02:37;8.00;1.00
22426;DHT22;11380;50.822;15.790;2023-10-09T03:07:47;7.90;1.00
22426;DHT22;11380;50.822;15.790;2023-10-09T03:12:56;7.80;1.00
22426;DHT22;11380;50.822;15.790;2023-10-09T03:18:05;7.80;1.00
22426;DHT22;11380;50.822;15.790;2023-10-09T03:23:13;7.70;1.00
22426;DHT22;11380;50.822;15.790;2023-10-09T03:28:20;7.70;1.00
22426;DHT22;11380;50.822;15.790;2023-10-09T03:33:27;7.80;1.00
22426;DHT22;11380;50.822;15.790;2023-10-09T03:38:37;7.60;54.30
22426;DHT22;11380;50.822;15.790;2023-10-09T03:43:44;7.20;99.90
22426;DHT22;11380;50.822;15.790;2023-10-09T03:48:52;7.40;99.90
22426;DHT22;11380;50.822;15.790;2023-10-09T03:54:03;7.60;99.90
22426;DHT22;11380;50.822;15.790;2023-10-09T03:59:13;7.90;99.90
22426;DHT22;11380;50.822;15.790;2023-10-09T04:04:21;8.00;41.70
22426;DHT22;11380;50.822;15.790;2023-10-09T04:09:28;7.70;34.20
22426;DHT22;11380;50.822;15.790;2023-10-09T04:14:38;7.90;99.90
22426;DHT22;11380;50.822;15.790;2023-10-09T04:19:54;8.10;99.90
22426;DHT22;11380;50.822;15.790;2023-10-09T04:25:21;8.40;83.50
22426;DHT22;11380;50.822;15.790;2023-10-09T04:30:30;8.30;1.00
22426;DHT22;11380;50.822;15.790;2023-10-09T04:35:40;8.20;99.90
22426;DHT22;11380;50.822;15.790;2023-10-09T04:40:51;8.20;64.50
22426;DHT22;11380;50.822;15.790;2023-10-09T04:46:00;8.30;59.30
22426;DHT22;11380;50.822;15.790;2023-10-09T04:51:16;8.30;94.10
22426;DHT22;11380;50.822;15.790;2023-10-09T04:56:26;8.10;73.70
22426;DHT22;11380;50.822;15.790;2023-10-09T05:01:35;8.00;99.90
22426;DHT22;11380;50.822;15.790;2023-10-09T05:06:43;8.10;99.90
22426;DHT22;11380;50.822;15.790;2023-10-09T05:11:52;7.70;99.90
22426;DHT22;11380;50.822;15.790;2023-10-09T05:17:00;7.50;99.90
22426;DHT22;11380;50.822;15.790;2023-10-09T05:22:10;8.00;99.90
22426;DHT22;11380;50.822;15.790;2023-10-09T05:27:36;8.10;99.90
22426;DHT22;11380;50.822;15.790;2023-10-09T05:32:54;8.00;99.90
22426;DHT22;11380;50.822;15.790;2023-10-09T05:38:08;8.20;99.90
22426;DHT22;11380;50.822;15.790;2023-10-09T05:43:16;8.20;99.90
22426;DHT22;11380;50.822;15.790;2023-10-09T05:48:25;8.40;99.90
22426;DHT22;11380;50.822;15.790;2023-10-09T05:53:44;8.30;99.90
22426;DHT22;11380;50.822;15.790;2023-10-09T05:58:51;8.20;99.90
22426;DHT22;11380;50.822;15.790;2023-10-09T06:04:17;8.40;99.90
22426;DHT22;11380;50.822;15.790;2023-10-09T06:09:26;8.40;99.90
22426;DHT22;11380;50.822;15.790;2023-10-09T06:14:37;8.50;99.90
22426;DHT22;11380;50.822;15.790;2023-10-09T06:19:43;8.10;99.90
22426;DHT22;11380;50.822;15.790;2023-10-09T06:24:49;8.40;99.90
22426;DHT22;11380;50.822;15.790;2023-10-09T06:30:00;8.30;99.90
22426;DHT22;11380;50.822;15.790;2023-10-09T06:35:21;8.20;99.90
22426;DHT22;11380;50.822;15.790;2023-10-09T06:40:31;8.50;99.90
22426;DHT22;11380;50.822;15.790;2023-10-09T06:45:43;8.70;99.90
22426;DHT22;11380;50.822;15.790;2023-10-09T06:50:51;8.80;99.90
22426;DHT22;11380;50.822;15.790;2023-10-09T06:56:10;8.70;99.90
22426;DHT22;11380;50.822;15.790;2023-10-09T07:01:19;8.90;99.90
22426;DHT22;11380;50.822;15.790;2023-10-09T07:06:48;8.80;99.90
22426;DHT22;11380;50.822;15.790;2023-10-09T07:11:56;9.10;99.90
22426;DHT22;11380;50.822;15.790;2023-10-09T07:17:10;9.10;99.90
22426;DHT22;11380;50.822;15.790;2023-10-09T07:22:30;9.30;99.90
22426;DHT22;11380;50.822;15.790;2023-10-09T07:27:39;9.10;99.90
22426;DHT22;11380;50.822;15.790;2023-10-09T07:33:01;9.10;99.90
22426;DHT22;11380;50.822;15.790;2023-10-09T07:38:20;9.20;99.90
22426;DHT22;11380;50.822;15.790;2023-10-09T07:43:33;9.20;99.90
22426;DHT22;11380;50.822;15.790;2023-10-09T07:48:43;9.20;99.90
22426;DHT22;11380;50.822;15.790;2023-10-09T07:54:00;9.20;99.90
22426;DHT22;11380;50.822;15.790;2023-10-09T07:59:15;9.20;99.90
22426;DHT22;11380;50.822;15.790;2023-10-09T08:04:26;9.30;99.90
22426;DHT22;11380;50.822;15.790;2023-10-09T08:09:47;9.40;99.90
22426;DHT22;11380;50.822;15.790;2023-10-09T08:14:56;9.30;99.90
22426;DHT22;11380;50.822;15.790;2023-10-09T08:20:06;9.40;99.90
22426;DHT22;11380;50.822;15.790;2023-10-09T08:25:22;9.40;99.90
22426;DHT22;11380;50.822;15.790;2023-10-09T08:30:34;9.40;99.90
22426;DHT22;11380;50.822;15.790;2023-10-09T08:35:49;9.40;99.90
22426;DHT22;11380;50.822;15.790;2023-10-09T08:40:56;9.50;99.90
22426;DHT22;11380;50.822;15.790;2023-10-09T08:46:05;9.60;99.90
22426;DHT22;11380;50.822;15.790;2023-10-09T08:51:13;9.70;99.90
22426;DHT22;11380;50.822;15.790;2023-10-09T08:56:22;9.80;99.90
22426;DHT22;11380;50.822;15.790;2023-10-09T09:01:29;9.70;99.90
22426;DHT22;11380;50.822;15.790;2023-10-09T09:06:39;9.70;99.90
22426;DHT22;11380;50.822;15.790;2023-10-09T09:11:46;9.50;99.90
22426;DHT22;11380;50.822;15.790;2023-10-09T09:16:58;9.70;99.90
22426;DHT22;11380;50.822;15.790;2023-10-09T09:22:07;9.70;99.90
22426;DHT22;11380;50.822;15.790;2023-10-09T09:27:17;9.80;99.90
22426;DHT22;11380;50.822;15.790;2023-10-09T09:32:30;9.80;99.90
22426;DHT22;11380;50.822;15.790;2023-10-09T09:37:52;10.00;99.90
22426;DHT22;11380;50.822;15.790;2023-10-09T09:43:01;10.00;99.90
22426;DHT22;11380;50.822;15.790;2023-10-09T09:48:13;9.90;99.90
22426;DHT22;11380;50.822;15.790;2023-10-09T09:53:21;10.00;99.90
22426;DHT22;11380;50.822;15.790;2023-10-09T09:58:29;10.10;99.90
22426;DHT22;11380;50.822;15.790;2023-10-09T10:03:49;10.10;99.90
22426;DHT22;11380;50.822;15.790;2023-10-09T10:09:04;10.10;99.90
22426;DHT22;11380;50.822;15.790;2023-10-09T10:14:13;10.00;99.90
22426;DHT22;11380;50.822;15.790;2023-10-09T10:25:32;10.10;99.90
22426;DHT22;11380;50.822;15.790;2023-10-09T10:30:48;10.00;99.90
22426;DHT22;11380;50.822;15.790;2023-10-09T10:35:58;10.10;99.90
22426;DHT22;11380;50.822;15.790;2023-10-09T10:41:12;10.20;99.90
22426;DHT22;11380;50.822;15.790;2023-10-09T10:46:29;10.10;99.90
22426;DHT22;11380;50.822;15.790;2023-10-09T10:51:41;10.20;99.90
22426;DHT22;11380;50.822;15.790;2023-10-09T10:56:46;10.20;99.90
22426;DHT22;11380;50.822;15.790;2023-10-09T11:01:56;10.30;99.90
22426;DHT22;11380;50.822;15.790;2023-10-09T11:07:06;10.40;99.90
22426;DHT22;11380;50.822;15.790;2023-10-09T11:12:29;10.40;99.90
22426;DHT22;11380;50.822;15.790;2023-10-09T11:18:04;10.40;99.90
22426;DHT22;11380;50.822;15.790;2023-10-09T11:23:16;10.50;99.90
22426;DHT22;11380;50.822;15.790;2023-10-09T11:28:23;10.50;99.90
22426;DHT22;11380;50.822;15.790;2023-10-09T11:33:47;10.60;99.90
22426;DHT22;11380;50.822;15.790;2023-10-09T11:38:56;10.60;99.90
22426;DHT22;11380;50.822;15.790;2023-10-09T11:44:33;10.70;99.90
22426;DHT22;11380;50.822;15.790;2023-10-09T11:49:31;10.80;99.90
22426;DHT22;11380;50.822;15.790;2023-10-09T11:54:40;10.80;99.90
22426;DHT22;11380;50.822;15.790;2023-10-09T11:59:49;10.90;99.90
22426;DHT22;11380;50.822;15.790;2023-10-09T12:04:57;10.90;99.90
22426;DHT22;11380;50.822;15.790;2023-10-09T12:10:04;10.90;99.90
22426;DHT22;11380;50.822;15.790;2023-10-09T12:15:14;10.70;99.90
22426;DHT22;11380;50.822;15.790;2023-10-09T12:20:23;10.40;99.90
22426;DHT22;11380;50.822;15.790;2023-10-09T12:25:34;10.70;99.90
22426;DHT22;11380;50.822;15.790;2023-10-09T12:30:41;10.70;99.90
22426;DHT22;11380;50.822;15.790;2023-10-09T12:35:50;10.90;99.90
22426;DHT22;11380;50.822;15.790;2023-10-09T12:41:04;10.90;99.90
22426;DHT22;11380;50.822;15.790;2023-10-09T12:46:13;10.90;99.90
22426;DHT22;11380;50.822;15.790;2023-10-09T12:51:25;11.10;99.90
22426;DHT22;11380;50.822;15.790;2023-10-09T12:56:33;11.10;99.90
22426;DHT22;11380;50.822;15.790;2023-10-09T13:01:42;11.10;99.90
22426;DHT22;11380;50.822;15.790;2023-10-09T13:06:49;11.10;99.90
22426;DHT22;11380;50.822;15.790;2023-10-09T13:11:57;11.10;99.90
22426;DHT22;11380;50.822;15.790;2023-10-09T13:17:05;11.10;99.90
22426;DHT22;11380;50.822;15.790;2023-10-09T13:22:15;11.30;99.90
22426;DHT22;11380;50.822;15.790;2023-10-09T13:27:22;11.30;99.90
22426;DHT22;11380;50.822;15.790;2023-10-09T13:32:29;11.40;99.90
22426;DHT22;11380;50.822;15.790;2023-10-09T13:37:37;11.40;99.90
22426;DHT22;11380;50.822;15.790;2023-10-09T13:42:44;11.10;99.90
22426;DHT22;11380;50.822;15.790;2023-10-09T13:47:55;11.40;99.90
22426;DHT22;11380;50.822;15.790;2023-10-09T13:53:03;11.40;99.90
22426;DHT22;11380;50.822;15.790;2023-10-09T13:58:11;11.30;99.90
22426;DHT22;11380;50.822;15.790;2023-10-09T14:03:20;11.30;99.90
22426;DHT22;11380;50.822;15.790;2023-10-09T14:08:29;11.40;99.90
22426;DHT22;11380;50.822;15.790;2023-10-09T14:13:36;11.30;99.90
22426;DHT22;11380;50.822;15.790;2023-10-09T14:18:44;11.40;99.90
22426;DHT22;11380;50.822;15.790;2023-10-09T14:23:53;11.40;99.90
22426;DHT22;11380;50.822;15.790;2023-10-09T14:29:01;11.10;99.90
22426;DHT22;11380;50.822;15.790;2023-10-09T14:34:10;11.20;99.90
22426;DHT22;11380;50.822;15.790;2023-10-09T14:39:16;11.10;99.90
22426;DHT22;11380;50.822;15.790;2023-10-09T14:44:25;11.20;99.90
22426;DHT22;11380;50.822;15.790;2023-10-09T14:49:33;11.20;99.90
22426;DHT22;11380;50.822;15.790;2023-10-09T14:54:44;11.00;99.90
22426;DHT22;11380;50.822;15.790;2023-10-09T14:59:52;10.90;99.90
22426;DHT22;11380;50.822;15.790;2023-10-09T15:05:01;10.80;99.90
22426;DHT22;11380;50.822;15.790;2023-10-09T15:10:10;10.70;99.90
22426;DHT22;11380;50.822;15.790;2023-10-09T15:15:19;10.80;99.90
22426;DHT22;11380;50.822;15.790;2023-10-09T15:20:28;10.90;99.90
22426;DHT22;11380;50.822;15.790;2023-10-09T15:25:37;10.90;99.90
22426;DHT22;11380;50.822;15.790;2023-10-09T15:30:45;10.60;99.90
22426;DHT22;11380;50.822;15.790;2023-10-09T15:35:52;10.50;99.90
22426;DHT22;11380;50.822;15.790;2023-10-09T15:41:00;10.50;99.90
22426;DHT22;11380;50.822;15.790;2023-10-09T15:46:12;10.50;99.90
22426;DHT22;11380;50.822;15.790;2023-10-09T15:51:20;10.50;99.90
22426;DHT22;11380;50.822;15.790;2023-10-09T15:56:27;10.60;99.90
22426;DHT22;11380;50.822;15.790;2023-10-09T16:01:33;10.50;99.90
22426;DHT22;11380;50.822;15.790;2023-10-09T16:06:45;10.60;99.90
22426;DHT22;11380;50.822;15.790;2023-10-09T16:11:51;10.50;99.90
22426;DHT22;11380;50.822;15.790;2023-10-09T16:16:58;10.70;99.90
22426;DHT22;11380;50.822;15.790;2023-10-09T16:22:06;10.50;99.90
22426;DHT22;11380;50.822;15.790;2023-10-09T16:27:14;10.70;99.90
22426;DHT22;11380;50.822;15.790;2023-10-09T16:32:23;10.90;99.90
22426;DHT22;11380;50.822;15.790;2023-10-09T16:37:30;10.90;99.90
22426;DHT22;11380;50.822;15.790;2023-10-09T16:42:38;11.00;99.90
22426;DHT22;11380;50.822;15.790;2023-10-09T16:47:48;10.90;99.90
22426;DHT22;11380;50.822;15.790;2023-10-09T16:53:01;10.90;99.90
22426;DHT22;11380;50.822;15.790;2023-10-09T16:58:12;11.00;99.90
22426;DHT22;11380;50.822;15.790;2023-10-09T17:03:20;11.00;99.90
22426;DHT22;11380;50.822;15.790;2023-10-09T17:08:32;11.00;99.90
22426;DHT22;11380;50.822;15.790;2023-10-09T17:13:42;11.00;99.90
22426;DHT22;11380;50.822;15.790;2023-10-09T17:18:57;11.00;99.90
22426;DHT22;11380;50.822;15.790;2023-10-09T17:24:06;11.00;99.90
22426;DHT22;11380;50.822;15.790;2023-10-09T17:29:14;10.90;99.90
22426;DHT22;11380;50.822;15.790;2023-10-09T17:34:21;10.90;99.90
22426;DHT22;11380;50.822;15.790;2023-10-09T17:39:30;10.70;99.90
22426;DHT22;11380;50.822;15.790;2023-10-09T17:44:39;10.70;99.90
22426;DHT22;11380;50.822;15.790;2023-10-09T17:49:46;10.70;99.90
22426;DHT22;11380;50.822;15.790;2023-10-09T17:54:53;10.70;99.90
22426;DHT22;11380;50.822;15.790;2023-10-09T18:00:02;10.80;99.90
22426;DHT22;11380;50.822;15.790;2023-10-09T18:05:08;10.90;99.90
22426;DHT22;11380;50.822;15.790;2023-10-09T18:10:15;10.90;99.90
22426;DHT22;11380;50.822;15.790;2023-10-09T18:15:21;11.00;99.90
22426;DHT22;11380;50.822;15.790;2023-10-09T18:20:30;11.00;99.90
22426;DHT22;11380;50.822;15.790;2023-10-09T18:25:38;11.00;99.90
22426;DHT22;11380;50.822;15.790;2023-10-09T18:30:44;10.90;99.90
22426;DHT22;11380;50.822;15.790;2023-10-09T18:35:52;11.00;99.90
22426;DHT22;11380;50.822;15.790;2023-10-09T18:40:58;11.20;99.90
22426;DHT22;11380;50.822;15.790;2023-10-09T18:46:05;11.10;99.90
22426;DHT22;11380;50.822;15.790;2023-10-09T18:51:19;11.10;99.90
22426;DHT22;11380;50.822;15.790;2023-10-09T18:56:25;11.20;99.90
22426;DHT22;11380;50.822;15.790;2023-10-09T19:01:35;11.10;99.90
22426;DHT22;11380;50.822;15.790;2023-10-09T19:06:42;11.00;99.90
22426;DHT22;11380;50.822;15.790;2023-10-09T19:11:50;11.10;99.90
22426;DHT22;11380;50.822;15.790;2023-10-09T19:16:58;11.10;99.90
22426;DHT22;11380;50.822;15.790;2023-10-09T19:22:06;11.10;99.90
22426;DHT22;11380;50.822;15.790;2023-10-09T19:27:13;11.10;99.90
22426;DHT22;11380;50.822;15.790;2023-10-09T19:32:20;11.10;99.90
22426;DHT22;11380;50.822;15.790;2023-10-09T19:37:29;11.00;99.90
22426;DHT22;11380;50.822;15.790;2023-10-09T19:42:36;11.10;99.90
22426;DHT22;11380;50.822;15.790;2023-10-09T19:47:44;10.90;99.90
22426;DHT22;11380;50.822;15.790;2023-10-09T19:52:51;10.90;99.90
22426;DHT22;11380;50.822;15.790;2023-10-09T19:57:58;11.00;99.90
22426;DHT22;11380;50.822;15.790;2023-10-09T20:03:05;11.00;99.90
22426;DHT22;11380;50.822;15.790;2023-10-09T20:08:14;11.10;99.90
22426;DHT22;11380;50.822;15.790;2023-10-09T20:13:22;11.00;99.90
22426;DHT22;11380;50.822;15.790;2023-10-09T20:18:30;11.20;99.90
22426;DHT22;11380;50.822;15.790;2023-10-09T20:23:40;11.30;99.90
22426;DHT22;11380;50.822;15.790;2023-10-09T20:28:47;11.30;99.90
22426;DHT22;11380;50.822;15.790;2023-10-09T20:33:54;11.20;99.90
22426;DHT22;11380;50.822;15.790;2023-10-09T20:39:04;11.10;99.90
22426;DHT22;11380;50.822;15.790;2023-10-09T20:44:14;11.20;99.90
22426;DHT22;11380;50.822;15.790;2023-10-09T20:49:22;11.20;99.90
22426;DHT22;11380;50.822;15.790;2023-10-09T20:54:31;11.10;99.90
22426;DHT22;11380;50.822;15.790;2023-10-09T20:59:38;11.20;99.90
22426;DHT22;11380;50.822;15.790;2023-10-09T21:04:46;11.20;99.90
22426;DHT22;11380;50.822;15.790;2023-10-09T21:09:54;11.40;99.90
22426;DHT22;11380;50.822;15.790;2023-10-09T21:15:02;11.40;99.90
22426;DHT22;11380;50.822;15.790;2023-10-09T21:20:13;11.30;99.90
22426;DHT22;11380;50.822;15.790;2023-10-09T21:25:24;11.30;99.90
22426;DHT22;11380;50.822;15.790;2023-10-09T21:30:31;11.10;99.90
22426;DHT22;11380;50.822;15.790;2023-10-09T21:35:39;11.00;99.90
22426;DHT22;11380;50.822;15.790;2023-10-09T21:40:48;11.00;99.90
22426;DHT22;11380;50.822;15.790;2023-10-09T21:45:55;11.10;99.90
22426;DHT22;11380;50.822;15.790;2023-10-09T21:51:03;11.20;99.90
22426;DHT22;11380;50.822;15.790;2023-10-09T21:56:14;11.30;99.90
22426;DHT22;11380;50.822;15.790;2023-10-09T22:01:21;11.30;99.90
22426;DHT22;11380;50.822;15.790;2023-10-09T22:06:30;11.30;99.90
22426;DHT22;11380;50.822;15.790;2023-10-09T22:11:36;11.40;99.90
22426;DHT22;11380;50.822;15.790;2023-10-09T22:16:42;11.40;99.90
22426;DHT22;11380;50.822;15.790;2023-10-09T22:21:50;11.40;99.90
22426;DHT22;11380;50.822;15.790;2023-10-09T22:26:58;11.40;99.90
22426;DHT22;11380;50.822;15.790;2023-10-09T22:32:05;11.50;99.90
22426;DHT22;11380;50.822;15.790;2023-10-09T22:37:14;11.50;99.90
22426;DHT22;11380;50.822;15.790;2023-10-09T22:42:22;11.50;99.90
22426;DHT22;11380;50.822;15.790;2023-10-09T22:47:28;11.50;99.90
22426;DHT22;11380;50.822;15.790;2023-10-09T22:52:37;11.60;99.90
22426;DHT22;11380;50.822;15.790;2023-10-09T22:57:44;11.50;99.90
22426;DHT22;11380;50.822;15.790;2023-10-09T23:02:51;11.60;99.90
22426;DHT22;11380;50.822;15.790;2023-10-09T23:08:01;11.60;99.90
22426;DHT22;11380;50.822;15.790;2023-10-09T23:13:09;11.60;99.90
22426;DHT22;11380;50.822;15.790;2023-10-09T23:18:23;11.60;99.90
22426;DHT22;11380;50.822;15.790;2023-10-09T23:23:39;11.70;99.90
22426;DHT22;11380;50.822;15.790;2023-10-09T23:28:46;11.80;99.90
22426;DHT22;11380;50.822;15.790;2023-10-09T23:33:56;11.70;99.90
22426;DHT22;11380;50.822;15.790;2023-10-09T23:39:05;11.70;99.90
22426;DHT22;11380;50.822;15.790;2023-10-09T23:44:16;11.70;99.90
22426;DHT22;11380;50.822;15.790;2023-10-09T23:49:25;11.60;99.90
22426;DHT22;11380;50.822;15.790;2023-10-09T23:54:33;11.60;99.90
22426;DHT22;11380;50.822;15.790;2023-10-09T23:59:42;11.60;99.90
